Terminal Aerodrome Forecast
Issued by NWS Flagstaff, AZ

Home | Current Version | Previous Version | Text Only | Print | Product List | Glossary On
Versions: 1 2 3 4 5 6 7 8 9 10 11 12 13 14 15 16 17 18 19 20 21 22 23 24
000
FTUS45 KFGZ 222330
TAFFLG
TAF
KFLG 222330Z 2300/2324 20010G18KT P6SM SCT250
     FM230100 VRB03KT P6SM SCT200
     FM231800 21010G20KT P6SM FEW060 SCT100
      TEMPO 2320/2324 VRB20G30KT 4SM TSRA BKN060CB=

USA.gov is the U.S. government's official web portal to all federal, state and local government web resources and services.